»·PEaware :: N1KE KHIO-KOTH

N1KE :: KHIO-KOTH

FLIGHT INFORMATION

Flight Status: Arrived
Operator: Privately registered:
United States
More flights under this callsign
Pilot: Zach S. (18794)
Aircraft: Unknown
(GLF6)
More flights by this aircraft type
Origin: KHIO Portland-Hillsboro
United States
Destination: KOTH North Bend Mun
United States
More flights between these airports :: More routes between these airports
Route: +BERNI3 EASON SCOTY OTH
File this flight plan on PilotEdge
Remarks: / L
Altitude:
(Current/Filed)
18,000ft
Speed:
(Current/Filed)
0kts
Departed: 06-Jun-18 02:12 PM
Arrived: 06-Jun-18 02:50 PM
Distance/Time
Traveled:
139nm/0:38
Distance/Time
To Go:
Arrived

Flight Plot

Page will automatically refresh every two minutes.

Flight plan parsing failed; only flown route is shown


Map Options




Map Legend


Flown Route
Filed Route
Departure Airport
Arrival Airport
Navaid (VOR, NDB)
Fix

Horizontal Profiles

Position Reports

Time Latitude Longitude Heading Altitude Ground
Speed
06-Jun-18 14:01 45.540615 -122.940203 358 215ft 3kts
06-Jun-18 14:02 45.541527 -122.941778 257 215ft 6kts
06-Jun-18 14:03 45.540175 -122.943472 219 215ft 20kts
06-Jun-18 14:04 45.540175 -122.943472 219 215ft 20kts
06-Jun-18 14:05 45.536715 -122.947355 195 215ft 14kts
06-Jun-18 14:06 45.534651 -122.945302 54 215ft 0kts
06-Jun-18 14:07 45.534650 -122.945302 55 215ft 0kts
06-Jun-18 14:08 45.534650 -122.945302 55 215ft 0kts
06-Jun-18 14:09 45.534650 -122.945302 55 215ft 0kts
06-Jun-18 14:10 45.534650 -122.945302 55 215ft 0kts
06-Jun-18 14:11 45.534686 -122.945228 55 215ft 5kts
06-Jun-18 14:12 45.541430 -122.950911 324 216ft 159kts
06-Jun-18 14:13 45.542813 -123.010708 196 2293ft 228kts
06-Jun-18 14:14 45.482268 -123.034347 195 5115ft 232kts
06-Jun-18 14:15 45.419488 -123.056511 195 7915ft 233kts
06-Jun-18 14:16 45.351344 -123.080232 195 10835ft 329kts
06-Jun-18 14:17 45.263007 -123.113792 195 13662ft 335kts
06-Jun-18 14:18 45.171024 -123.148423 195 16458ft 354kts
06-Jun-18 14:19 45.076158 -123.183470 195 19249ft 362kts
06-Jun-18 14:20 44.976716 -123.219717 195 19996ft 372kts
06-Jun-18 14:21 44.876854 -123.256166 195 20002ft 373kts
06-Jun-18 14:22 44.776677 -123.292635 195 20006ft 373kts
06-Jun-18 14:23 44.676636 -123.328948 195 20007ft 363kts
06-Jun-18 14:24 44.582222 -123.363122 195 18451ft 353kts
06-Jun-18 14:25 44.488674 -123.397570 199 16641ft 345kts
06-Jun-18 14:26 44.403377 -123.455267 206 14840ft 337kts
06-Jun-18 14:27 44.320365 -123.512310 206 13031ft 330kts
06-Jun-18 14:28 44.239068 -123.568278 206 12011ft 325kts
06-Jun-18 14:29 44.157947 -123.624071 206 12012ft 326kts
06-Jun-18 14:30 44.077046 -123.679464 206 11116ft 322kts
06-Jun-18 14:31 43.997740 -123.732786 206 9315ft 314kts
06-Jun-18 14:32 43.919796 -123.784471 206 7509ft 307kts
06-Jun-18 14:33 43.844705 -123.833312 206 6026ft 299kts
06-Jun-18 14:34 43.769125 -123.881683 206 6000ft 300kts
06-Jun-18 14:35 43.710652 -123.952472 257 6034ft 295kts
06-Jun-18 14:36 43.679076 -124.044169 244 5999ft 263kts
06-Jun-18 14:37 43.647729 -124.132049 244 6002ft 250kts
06-Jun-18 14:38 43.616662 -124.219095 244 6001ft 250kts
06-Jun-18 14:39 43.585646 -124.305990 244 6001ft 250kts
06-Jun-18 14:40 43.554566 -124.393056 244 6000ft 251kts
06-Jun-18 14:41 43.523593 -124.479814 244 5917ft 254kts
06-Jun-18 14:42 43.483031 -124.535117 175 4061ft 208kts
06-Jun-18 14:43 43.428901 -124.525328 175 2995ft 181kts
06-Jun-18 14:44 43.387231 -124.517074 165 2989ft 183kts
06-Jun-18 14:45 43.344464 -124.485061 98 3003ft 187kts
06-Jun-18 14:46 43.350701 -124.416392 53 2603ft 176kts
06-Jun-18 14:47 43.374661 -124.358117 56 1670ft 174kts
06-Jun-18 14:48 43.397928 -124.301585 56 732ft 168kts
06-Jun-18 14:49 43.419355 -124.249435 56 29ft 119kts
06-Jun-18 14:50 43.421678 -124.240678 213 28ft 11kts
06-Jun-18 14:51 43.418822 -124.246790 151 28ft 13kts
06-Jun-18 14:52 43.417283 -124.246849 152 28ft 0kts

Navigation Log

Ident Type
Flight plan parsing failed, navigation log unavailable